createdAt,value
2018-12-29T00:01:00.487Z,7.30
2018-12-29T00:02:06.204Z,6.93
2018-12-29T00:03:10.209Z,6.60
2018-12-29T00:04:14.268Z,7.37
2018-12-29T00:05:18.393Z,7.13
2018-12-29T00:06:22.397Z,6.50
2018-12-29T00:07:26.480Z,7.45
2018-12-29T00:08:30.531Z,6.92
2018-12-29T00:09:38.289Z,7.40
2018-12-29T00:10:42.322Z,6.55
2018-12-29T00:11:46.356Z,7.15
2018-12-29T00:12:50.434Z,7.08
2018-12-29T00:13:54.449Z,7.17
2018-12-29T00:14:58.526Z,6.97
2018-12-29T00:16:03.180Z,6.55
2018-12-29T00:17:07.220Z,6.53
2018-12-29T00:18:11.320Z,6.67
2018-12-29T00:19:15.326Z,6.78
2018-12-29T00:20:19.375Z,7.20
2018-12-29T00:21:23.729Z,6.78
2018-12-29T00:22:27.795Z,6.55
2018-12-29T00:23:32.044Z,6.67
2018-12-29T00:24:36.070Z,6.77
2018-12-29T00:25:40.140Z,7.27
2018-12-29T00:27:59.557Z,6.73
2018-12-29T00:29:03.691Z,6.90
2018-12-29T00:30:07.725Z,7.60
2018-12-29T00:31:11.881Z,7.78
2018-12-29T00:32:16.011Z,6.97
2018-12-29T00:33:20.073Z,7.15
2018-12-29T00:34:24.149Z,7.08
2018-12-29T00:35:28.244Z,7.08
2018-12-29T00:36:32.301Z,6.97
2018-12-29T00:37:36.359Z,7.25
2018-12-29T00:38:41.613Z,7.47
2018-12-29T00:39:45.622Z,7.10
2018-12-29T00:40:49.724Z,7.33
2018-12-29T00:41:53.792Z,7.47
2018-12-29T00:42:58.005Z,7.70
2018-12-29T00:44:02.039Z,7.85
2018-12-29T00:45:06.076Z,7.75
2018-12-29T00:46:10.125Z,7.80
2018-12-29T00:47:14.147Z,7.17
2018-12-29T00:48:18.208Z,7.40
2018-12-29T00:49:22.481Z,7.12
2018-12-29T00:50:26.543Z,7.00
2018-12-29T00:51:30.610Z,7.47
2018-12-29T00:52:34.638Z,7.10
2018-12-29T00:53:38.681Z,6.62
2018-12-29T00:54:42.753Z,6.62
2018-12-29T00:55:46.817Z,7.35
2018-12-29T00:56:50.888Z,7.60
2018-12-29T00:57:55.119Z,7.42
2018-12-29T00:58:59.257Z,7.00
2018-12-29T01:00:03.437Z,6.83
2018-12-29T01:01:07.543Z,7.33
2018-12-29T01:02:11.552Z,7.40
2018-12-29T01:03:15.614Z,7.22
2018-12-29T01:04:21.289Z,7.33
2018-12-29T01:05:25.353Z,7.43
2018-12-29T01:06:30.167Z,7.33
2018-12-29T01:07:34.632Z,7.43
2018-12-29T01:08:38.633Z,7.90
2018-12-29T01:09:42.711Z,7.37
2018-12-29T01:10:46.754Z,7.57
2018-12-29T01:11:50.781Z,6.70
2018-12-29T01:12:54.805Z,7.40
2018-12-29T01:13:58.865Z,6.73
2018-12-29T01:15:09.639Z,7.47
2018-12-29T01:16:08.744Z,7.03
2018-12-29T01:17:12.756Z,6.75
2018-12-29T01:18:16.842Z,6.92
2018-12-29T01:19:20.914Z,7.05
2018-12-29T01:20:24.944Z,7.37
2018-12-29T01:21:28.980Z,6.93
2018-12-29T01:22:32.996Z,7.53
2018-12-29T01:23:37.036Z,7.75
2018-12-29T01:24:41.087Z,7.33
2018-12-29T01:25:45.133Z,7.50
2018-12-29T01:26:49.163Z,7.28
2018-12-29T01:27:53.180Z,7.58
2018-12-29T01:28:57.206Z,7.25
2018-12-29T01:30:01.300Z,7.28
2018-12-29T01:31:05.397Z,7.35
2018-12-29T01:32:09.436Z,7.60
2018-12-29T01:33:13.445Z,7.55
2018-12-29T01:34:17.474Z,6.90
2018-12-29T01:35:21.517Z,7.95
2018-12-29T01:36:25.547Z,6.90
2018-12-29T01:37:29.646Z,6.95
2018-12-29T01:38:33.684Z,7.83
2018-12-29T01:39:37.717Z,7.33
2018-12-29T01:40:43.248Z,7.30
2018-12-29T01:41:47.288Z,8.20
2018-12-29T01:42:51.293Z,7.15
2018-12-29T01:43:55.322Z,6.93
2018-12-29T01:44:59.358Z,7.85
2018-12-29T01:46:03.399Z,7.47
2018-12-29T01:47:07.429Z,8.00
2018-12-29T01:48:11.483Z,7.80
2018-12-29T01:49:15.508Z,8.18
2018-12-29T01:50:19.552Z,7.72
2018-12-29T01:51:23.576Z,7.58
2018-12-29T01:52:27.606Z,8.30
2018-12-29T01:53:31.621Z,7.40
2018-12-29T01:54:35.642Z,7.85
2018-12-29T01:55:39.693Z,15.35
2018-12-29T01:56:43.753Z,16.23
2018-12-29T01:57:47.825Z,37.50
2018-12-29T01:58:51.930Z,26.13
2018-12-29T01:59:55.963Z,16.50
2018-12-29T02:01:00.057Z,12.03
2018-12-29T02:02:04.296Z,10.43
2018-12-29T02:03:08.345Z,9.97
2018-12-29T02:04:12.390Z,9.20
2018-12-29T02:05:16.428Z,8.30
2018-12-29T02:06:20.487Z,8.37
2018-12-29T02:07:24.547Z,7.40
2018-12-29T02:08:28.640Z,7.85
2018-12-29T02:09:32.671Z,8.27
2018-12-29T02:10:36.720Z,7.60
2018-12-29T02:11:40.797Z,7.80
2018-12-29T02:12:44.818Z,7.93
2018-12-29T02:13:48.855Z,7.90
2018-12-29T02:14:52.900Z,7.92
2018-12-29T02:15:56.931Z,7.87
2018-12-29T02:17:00.951Z,7.42
2018-12-29T02:18:05.019Z,8.25
2018-12-29T02:19:09.114Z,7.97
2018-12-29T02:20:13.139Z,8.38
2018-12-29T02:21:17.203Z,8.98
2018-12-29T02:22:21.275Z,8.70
2018-12-29T02:23:25.441Z,8.25
2018-12-29T02:24:29.725Z,7.30
2018-12-29T02:25:33.796Z,8.45
2018-12-29T02:26:37.901Z,6.57
2018-12-29T02:27:41.963Z,7.50
2018-12-29T02:28:45.997Z,7.47
2018-12-29T02:29:50.046Z,7.67
2018-12-29T02:30:54.087Z,7.17
2018-12-29T02:31:58.116Z,7.42
2018-12-29T02:33:02.142Z,7.17
2018-12-29T02:34:06.178Z,7.53
2018-12-29T02:35:10.182Z,7.97
2018-12-29T02:36:14.205Z,7.80
2018-12-29T02:37:18.232Z,7.87
2018-12-29T02:38:22.279Z,8.23
2018-12-29T02:39:26.327Z,8.28
2018-12-29T02:40:30.474Z,8.40
2018-12-29T02:41:34.552Z,7.95
2018-12-29T02:42:38.560Z,7.78
2018-12-29T02:43:42.574Z,7.58
2018-12-29T02:44:46.596Z,7.57
2018-12-29T02:45:50.692Z,8.80
2018-12-29T02:46:54.721Z,8.00
2018-12-29T02:47:58.782Z,7.83
2018-12-29T02:49:20.962Z,7.10
2018-12-29T02:50:42.938Z,8.88
2018-12-29T02:52:05.020Z,6.40
2018-12-29T02:53:26.949Z,7.03
2018-12-29T02:54:31.075Z,7.58
2018-12-29T02:55:35.407Z,8.58
2018-12-29T02:56:39.473Z,8.47
2018-12-29T02:57:43.665Z,9.23
2018-12-29T02:58:47.698Z,8.43
2018-12-29T02:59:51.813Z,8.40
2018-12-29T03:00:55.877Z,7.85
2018-12-29T03:01:59.978Z,8.35
2018-12-29T03:03:03.998Z,7.65
2018-12-29T03:04:08.054Z,8.60
2018-12-29T03:05:12.084Z,8.33
2018-12-29T03:06:16.126Z,8.70
2018-12-29T03:07:20.187Z,8.25
2018-12-29T03:08:24.227Z,9.13
2018-12-29T03:09:28.309Z,8.27
2018-12-29T03:10:32.368Z,8.33
2018-12-29T03:11:36.396Z,8.63
2018-12-29T03:12:40.426Z,9.07
2018-12-29T03:13:44.500Z,9.25
2018-12-29T03:14:48.572Z,8.70
2018-12-29T03:15:52.672Z,8.20
2018-12-29T03:16:56.735Z,8.10
2018-12-29T03:18:00.759Z,10.03
2018-12-29T03:19:04.797Z,8.33
2018-12-29T03:20:08.839Z,8.77
2018-12-29T03:21:13.793Z,8.70
2018-12-29T03:22:17.843Z,7.97
2018-12-29T03:23:21.864Z,8.80
2018-12-29T03:24:25.909Z,7.75
2018-12-29T03:25:30.025Z,8.38
2018-12-29T03:26:34.086Z,8.63
2018-12-29T03:27:38.141Z,7.78
2018-12-29T03:28:42.215Z,8.10
2018-12-29T03:29:46.251Z,7.80
2018-12-29T03:30:50.286Z,8.03
2018-12-29T03:31:54.335Z,7.90
2018-12-29T03:32:58.386Z,7.17
2018-12-29T03:34:02.395Z,7.13
2018-12-29T03:35:06.487Z,7.47
2018-12-29T03:36:10.540Z,8.03
2018-12-29T03:37:14.635Z,7.83
2018-12-29T03:38:18.655Z,7.87
2018-12-29T03:39:22.704Z,8.10
2018-12-29T03:40:26.812Z,7.87
2018-12-29T03:41:30.900Z,7.15
2018-12-29T03:42:34.977Z,8.57
2018-12-29T03:43:38.987Z,7.20
2018-12-29T03:44:43.011Z,7.67
2018-12-29T03:45:49.296Z,7.62
2018-12-29T03:46:52.763Z,6.95
2018-12-29T03:47:56.821Z,7.33
2018-12-29T03:49:00.830Z,7.15
2018-12-29T03:50:05.426Z,7.17
2018-12-29T03:51:09.464Z,7.47
2018-12-29T03:52:13.488Z,7.13
2018-12-29T03:53:17.540Z,7.55
2018-12-29T03:54:21.565Z,7.80
2018-12-29T03:55:25.822Z,8.33
2018-12-29T03:56:29.943Z,8.10
2018-12-29T03:57:33.953Z,7.97
2018-12-29T03:58:37.969Z,8.00
2018-12-29T03:59:41.995Z,8.47
2018-12-29T04:00:46.042Z,8.40
2018-12-29T04:01:50.076Z,8.30
2018-12-29T04:02:54.167Z,8.13
2018-12-29T04:03:58.192Z,7.92
2018-12-29T04:05:02.206Z,8.08
2018-12-29T04:06:06.242Z,8.48
2018-12-29T04:07:10.268Z,7.70
2018-12-29T04:08:14.288Z,7.90
2018-12-29T04:09:33.811Z,7.70
2018-12-29T04:10:37.821Z,7.90
2018-12-29T04:11:41.884Z,7.85
2018-12-29T04:12:46.819Z,8.27
2018-12-29T04:13:50.845Z,7.93
2018-12-29T04:14:54.882Z,9.17
2018-12-29T04:15:58.911Z,7.83
2018-12-29T04:17:02.950Z,7.50
2018-12-29T04:18:06.963Z,7.90
2018-12-29T04:19:10.998Z,7.30
2018-12-29T04:20:15.284Z,7.90
2018-12-29T04:21:19.322Z,8.23
2018-12-29T04:22:23.333Z,8.05
2018-12-29T04:23:27.380Z,8.18
2018-12-29T04:24:31.407Z,8.35
2018-12-29T04:25:35.525Z,8.33
2018-12-29T04:26:39.566Z,8.10
2018-12-29T04:27:43.583Z,7.90
2018-12-29T04:28:47.600Z,6.73
2018-12-29T04:29:51.636Z,8.03
2018-12-29T04:30:55.760Z,7.87
2018-12-29T04:31:59.797Z,7.50
2018-12-29T04:33:03.822Z,7.87
2018-12-29T04:34:07.877Z,6.95
2018-12-29T04:35:11.915Z,8.00
2018-12-29T04:36:15.956Z,7.27
2018-12-29T04:37:19.965Z,7.72
2018-12-29T04:38:24.002Z,7.53
2018-12-29T04:39:28.034Z,7.42
2018-12-29T04:40:32.065Z,7.97
2018-12-29T04:41:36.108Z,8.25
2018-12-29T04:42:40.143Z,7.33
2018-12-29T04:43:44.206Z,7.05
2018-12-29T04:44:48.223Z,8.08
2018-12-29T04:45:52.278Z,8.53
2018-12-29T04:46:56.311Z,8.60
2018-12-29T04:48:00.332Z,7.92
2018-12-29T04:49:04.390Z,8.73
2018-12-29T04:50:08.496Z,8.15
2018-12-29T04:51:12.532Z,7.87
2018-12-29T04:52:16.631Z,7.00
2018-12-29T04:53:20.664Z,7.42
2018-12-29T04:54:24.703Z,7.57
2018-12-29T04:55:28.739Z,8.00
2018-12-29T04:56:32.785Z,8.45
2018-12-29T04:57:36.810Z,7.93
2018-12-29T04:58:40.871Z,7.97
2018-12-29T04:59:44.899Z,7.97
2018-12-29T05:00:48.941Z,9.40
2018-12-29T05:01:52.953Z,8.77
2018-12-29T05:02:56.983Z,8.30
2018-12-29T05:04:01.023Z,8.38
2018-12-29T05:05:05.219Z,8.53
2018-12-29T05:06:09.250Z,8.63
2018-12-29T05:07:13.270Z,7.43
2018-12-29T05:08:17.313Z,8.28
2018-12-29T05:09:21.369Z,7.65
2018-12-29T05:10:25.388Z,7.03
2018-12-29T05:11:29.450Z,8.03
2018-12-29T05:12:33.470Z,7.28
2018-12-29T05:13:37.488Z,7.25
2018-12-29T05:14:41.516Z,7.87
2018-12-29T05:15:45.547Z,7.70
2018-12-29T05:16:49.609Z,7.62
2018-12-29T05:17:53.624Z,8.33
2018-12-29T05:18:57.650Z,7.87
2018-12-29T05:20:01.753Z,8.23
2018-12-29T05:21:05.774Z,7.70
2018-12-29T05:22:09.814Z,8.35
2018-12-29T05:23:13.839Z,8.15
2018-12-29T05:24:17.887Z,7.60
2018-12-29T05:25:21.923Z,8.60
2018-12-29T05:26:25.962Z,8.75
2018-12-29T05:27:30.007Z,7.72
2018-12-29T05:28:34.041Z,7.73
2018-12-29T05:29:38.092Z,7.65
2018-12-29T05:30:42.110Z,7.90
2018-12-29T05:31:46.154Z,8.40
2018-12-29T05:32:50.255Z,7.65
2018-12-29T05:33:54.281Z,7.97
2018-12-29T05:34:58.314Z,7.70
2018-12-29T05:36:02.342Z,8.18
2018-12-29T05:37:06.369Z,8.60
2018-12-29T05:38:10.460Z,7.80
2018-12-29T05:39:14.534Z,8.40
2018-12-29T05:40:18.548Z,7.87
2018-12-29T05:41:22.612Z,7.40
2018-12-29T05:42:26.644Z,7.80
2018-12-29T05:43:30.649Z,7.58
2018-12-29T05:44:34.699Z,7.90
2018-12-29T05:45:38.711Z,7.77
2018-12-29T05:46:42.736Z,8.00
2018-12-29T05:47:46.762Z,7.33
2018-12-29T05:48:50.796Z,8.45
2018-12-29T05:49:54.838Z,8.10
2018-12-29T05:50:58.863Z,7.62
2018-12-29T05:52:02.902Z,8.20
2018-12-29T05:53:06.962Z,8.28
2018-12-29T05:54:11.099Z,7.78
2018-12-29T05:55:15.436Z,7.97
2018-12-29T05:56:19.450Z,8.28
2018-12-29T05:57:23.496Z,8.43
2018-12-29T05:58:27.525Z,8.03
2018-12-29T05:59:31.555Z,8.58
2018-12-29T06:00:36.460Z,8.20
2018-12-29T06:01:40.500Z,8.13
2018-12-29T06:02:44.601Z,7.80
2018-12-29T06:03:48.604Z,8.80
2018-12-29T06:04:52.636Z,9.70
2018-12-29T06:05:56.957Z,9.20
2018-12-29T06:07:00.985Z,8.60
2018-12-29T06:08:05.012Z,9.45
2018-12-29T06:09:09.033Z,8.80
2018-12-29T06:10:13.097Z,8.50
2018-12-29T06:11:17.174Z,8.87
2018-12-29T06:12:21.215Z,9.63
2018-12-29T06:13:25.315Z,9.78
2018-12-29T06:14:29.334Z,8.90
2018-12-29T06:15:33.365Z,9.20
2018-12-29T06:16:40.751Z,9.00
2018-12-29T06:17:44.797Z,8.10
2018-12-29T06:18:48.830Z,9.58
2018-12-29T06:19:53.219Z,9.63
2018-12-29T06:20:57.239Z,9.15
2018-12-29T06:22:01.275Z,9.35
2018-12-29T06:23:05.305Z,9.58
2018-12-29T06:24:09.333Z,9.20
2018-12-29T06:25:13.368Z,9.50
2018-12-29T06:26:17.893Z,9.40
2018-12-29T06:27:21.915Z,8.73
2018-12-29T06:28:26.047Z,10.43
2018-12-29T06:29:30.072Z,9.78
2018-12-29T06:30:34.104Z,8.73
2018-12-29T06:31:38.126Z,8.73
2018-12-29T06:32:42.160Z,8.75
2018-12-29T06:33:46.219Z,9.17
2018-12-29T06:34:50.274Z,8.45
2018-12-29T06:35:54.396Z,9.50
2018-12-29T06:36:58.449Z,8.90
2018-12-29T06:38:02.486Z,9.37
2018-12-29T06:39:06.542Z,9.77
2018-12-29T06:40:10.559Z,8.90
2018-12-29T06:41:14.589Z,9.35
2018-12-29T06:42:18.677Z,8.48
2018-12-29T06:43:22.786Z,9.20
2018-12-29T06:44:26.882Z,9.28
2018-12-29T06:45:30.910Z,8.68
2018-12-29T06:46:35.386Z,8.40
2018-12-29T06:47:39.446Z,9.03
2018-12-29T06:48:43.496Z,8.53
2018-12-29T06:49:47.529Z,8.70
2018-12-29T06:50:51.548Z,9.08
2018-12-29T06:51:55.583Z,7.90
2018-12-29T06:52:59.625Z,9.70
2018-12-29T06:54:03.691Z,9.50
2018-12-29T06:55:07.794Z,9.77
2018-12-29T06:56:11.836Z,9.20
2018-12-29T06:57:16.082Z,8.40
2018-12-29T06:58:20.137Z,8.95
2018-12-29T06:59:24.234Z,10.17
2018-12-29T07:00:28.688Z,8.50
2018-12-29T07:01:32.781Z,8.65
2018-12-29T07:02:36.915Z,9.03
2018-12-29T07:03:40.926Z,9.78
2018-12-29T07:04:44.960Z,8.73
2018-12-29T07:05:48.975Z,9.15
2018-12-29T07:06:53.088Z,9.60
2018-12-29T07:07:57.122Z,10.08
2018-12-29T07:09:01.171Z,8.97
2018-12-29T07:10:05.278Z,10.13
2018-12-29T07:11:09.302Z,9.33
2018-12-29T07:12:13.339Z,8.93
2018-12-29T07:13:17.352Z,9.37
2018-12-29T07:14:21.429Z,9.35
2018-12-29T07:15:25.454Z,9.30
2018-12-29T07:16:29.487Z,9.63
2018-12-29T07:17:33.510Z,9.37
2018-12-29T07:18:37.547Z,9.23
2018-12-29T07:19:41.593Z,10.70
2018-12-29T07:20:45.635Z,9.67
2018-12-29T07:21:49.917Z,9.80
2018-12-29T07:22:53.962Z,9.13
2018-12-29T07:23:57.993Z,9.98
2018-12-29T07:25:02.108Z,9.90
2018-12-29T07:26:06.195Z,9.48
2018-12-29T07:27:10.453Z,9.75
2018-12-29T07:28:14.507Z,9.45
2018-12-29T07:29:18.586Z,9.48
2018-12-29T07:30:22.620Z,10.25
2018-12-29T07:31:26.747Z,9.15
2018-12-29T07:32:30.785Z,10.17
2018-12-29T07:33:34.900Z,9.43
2018-12-29T07:34:38.921Z,10.70
2018-12-29T07:35:42.948Z,9.35
2018-12-29T07:36:46.993Z,8.93
2018-12-29T07:37:51.037Z,10.37
2018-12-29T07:38:55.244Z,9.33
2018-12-29T07:39:59.261Z,9.83
2018-12-29T07:41:03.316Z,10.15
2018-12-29T07:42:07.367Z,10.27
2018-12-29T07:43:11.403Z,10.17
2018-12-29T07:44:15.431Z,10.47
2018-12-29T07:45:19.492Z,9.43
2018-12-29T07:46:23.551Z,10.65
2018-12-29T07:47:27.712Z,9.40
2018-12-29T07:48:31.815Z,11.80
2018-12-29T07:49:35.861Z,10.78
2018-12-29T07:50:39.953Z,9.83
2018-12-29T07:51:43.983Z,10.60
2018-12-29T07:52:48.083Z,10.25
2018-12-29T07:53:52.133Z,10.13
2018-12-29T07:54:56.158Z,9.47
2018-12-29T07:56:00.205Z,9.38
2018-12-29T07:57:04.243Z,8.93
2018-12-29T07:58:08.290Z,10.10
2018-12-29T07:59:12.335Z,10.53
2018-12-29T08:00:16.373Z,10.87
2018-12-29T08:01:20.405Z,10.53
2018-12-29T08:02:24.432Z,9.98
2018-12-29T08:03:28.510Z,10.83
2018-12-29T08:04:32.521Z,10.68
2018-12-29T08:05:36.568Z,12.18
2018-12-29T08:06:40.606Z,10.57
2018-12-29T08:07:44.626Z,10.77
2018-12-29T08:08:48.678Z,11.20
2018-12-29T08:09:52.706Z,11.55
2018-12-29T08:10:56.749Z,10.23
2018-12-29T08:12:00.876Z,11.63
2018-12-29T08:13:04.914Z,10.63
2018-12-29T08:14:08.957Z,11.35
2018-12-29T08:15:13.020Z,11.63
2018-12-29T08:16:17.076Z,11.88
2018-12-29T08:17:21.120Z,11.48
2018-12-29T08:18:25.211Z,10.40
2018-12-29T08:19:29.252Z,11.03
2018-12-29T08:20:33.273Z,10.30
2018-12-29T08:21:37.327Z,11.55
2018-12-29T08:22:41.358Z,11.22
2018-12-29T08:23:45.393Z,10.63
2018-12-29T08:24:49.434Z,9.70
2018-12-29T08:25:53.481Z,11.08
2018-12-29T08:26:57.538Z,10.10
2018-12-29T08:28:01.555Z,10.27
2018-12-29T08:29:05.599Z,10.80
2018-12-29T08:30:09.631Z,10.93
2018-12-29T08:31:13.704Z,12.70
2018-12-29T08:32:17.803Z,10.90
2018-12-29T08:33:21.827Z,11.77
2018-12-29T08:34:25.873Z,11.30
2018-12-29T08:35:29.911Z,12.28
2018-12-29T08:36:33.981Z,11.93
2018-12-29T08:37:38.016Z,10.68
2018-12-29T08:38:42.105Z,10.55
2018-12-29T08:39:46.286Z,9.95
2018-12-29T08:40:50.484Z,10.97
2018-12-29T08:41:54.535Z,10.58
2018-12-29T08:42:58.597Z,10.78
2018-12-29T08:44:02.626Z,11.83
2018-12-29T08:45:06.646Z,12.07
2018-12-29T08:46:10.764Z,11.35
2018-12-29T08:47:14.791Z,11.73
2018-12-29T08:48:19.526Z,11.00
2018-12-29T08:49:23.560Z,11.67
2018-12-29T08:50:27.639Z,13.23
2018-12-29T08:51:31.725Z,10.88
2018-12-29T08:52:35.770Z,11.10
2018-12-29T08:53:39.849Z,10.43
2018-12-29T08:54:43.891Z,10.73
2018-12-29T08:55:48.008Z,10.85
2018-12-29T08:56:52.047Z,10.30
2018-12-29T08:57:56.181Z,10.68
2018-12-29T08:59:00.293Z,10.13
2018-12-29T09:00:05.647Z,10.50
2018-12-29T09:01:09.769Z,11.83
2018-12-29T09:02:13.801Z,11.83
2018-12-29T09:03:17.920Z,11.63
2018-12-29T09:04:21.958Z,12.13
2018-12-29T09:05:26.008Z,11.60
2018-12-29T09:06:30.142Z,12.35
2018-12-29T09:07:34.285Z,11.60
2018-12-29T09:08:38.331Z,12.10
2018-12-29T09:09:42.384Z,12.60
2018-12-29T09:10:46.409Z,13.23
2018-12-29T09:11:50.442Z,12.80
2018-12-29T09:12:54.495Z,11.63
2018-12-29T09:13:58.564Z,12.70
2018-12-29T09:15:02.581Z,11.07
2018-12-29T09:16:06.616Z,10.20
2018-12-29T09:17:12.232Z,11.27
2018-12-29T09:18:16.556Z,11.38
2018-12-29T09:19:26.975Z,10.28
2018-12-29T09:20:26.324Z,10.75
2018-12-29T09:21:30.379Z,11.57
2018-12-29T09:22:34.487Z,13.03
2018-12-29T09:23:38.519Z,13.10
2018-12-29T09:24:42.665Z,10.93
2018-12-29T09:25:46.754Z,10.82
2018-12-29T09:26:50.838Z,11.22
2018-12-29T09:27:54.886Z,10.43
2018-12-29T09:28:58.940Z,10.80
2018-12-29T09:30:02.970Z,10.50
2018-12-29T09:31:06.993Z,10.17
2018-12-29T09:32:11.290Z,10.10
2018-12-29T09:33:15.375Z,9.93
2018-12-29T09:34:22.577Z,11.00
2018-12-29T09:35:25.191Z,10.70
2018-12-29T09:36:29.221Z,10.32
2018-12-29T09:37:33.336Z,10.18
2018-12-29T09:38:37.750Z,10.48
2018-12-29T09:39:41.825Z,11.45
2018-12-29T09:40:45.863Z,11.65
2018-12-29T09:41:51.356Z,11.03
2018-12-29T09:42:55.741Z,10.65
2018-12-29T09:43:59.785Z,9.43
2018-12-29T09:45:04.293Z,12.10
2018-12-29T09:46:08.323Z,11.12
2018-12-29T09:47:19.456Z,11.53
2018-12-29T09:48:18.123Z,11.60
2018-12-29T09:49:22.218Z,10.17
2018-12-29T09:50:26.277Z,10.97
2018-12-29T09:51:30.379Z,10.78
2018-12-29T09:52:34.683Z,9.75
2018-12-29T09:53:38.761Z,9.45
2018-12-29T09:54:42.785Z,9.70
2018-12-29T09:55:46.809Z,10.00
2018-12-29T09:56:50.877Z,9.90
2018-12-29T09:57:54.947Z,9.40
2018-12-29T09:58:59.078Z,9.47
2018-12-29T10:00:03.107Z,9.50
2018-12-29T10:01:07.139Z,9.35
2018-12-29T10:02:11.166Z,9.95
2018-12-29T10:03:15.223Z,9.05
2018-12-29T10:04:19.276Z,9.13
2018-12-29T10:05:23.324Z,9.70
2018-12-29T10:06:27.609Z,9.23
2018-12-29T10:07:31.644Z,8.93
2018-12-29T10:08:35.769Z,9.18
2018-12-29T10:09:39.818Z,8.93
2018-12-29T10:10:44.075Z,8.93
2018-12-29T10:11:48.105Z,8.67
2018-12-29T10:12:52.117Z,9.50
2018-12-29T10:13:56.157Z,26.65
2018-12-29T10:15:00.222Z,20.50
2018-12-29T10:16:04.264Z,13.40
2018-12-29T10:17:08.316Z,10.53
2018-12-29T10:18:12.350Z,9.57
2018-12-29T10:19:16.387Z,9.43
2018-12-29T10:20:20.418Z,8.43
2018-12-29T10:21:24.472Z,8.93
2018-12-29T10:22:28.567Z,9.13
2018-12-29T10:23:32.586Z,8.55
2018-12-29T10:24:36.631Z,8.18
2018-12-29T10:25:40.679Z,8.00
2018-12-29T10:26:44.725Z,8.65
2018-12-29T10:27:48.768Z,8.70
2018-12-29T10:28:52.931Z,8.90
2018-12-29T10:29:56.944Z,8.48
2018-12-29T10:31:00.955Z,8.08
2018-12-29T10:32:04.974Z,8.97
2018-12-29T10:33:09.022Z,8.50
2018-12-29T10:34:13.319Z,8.83
2018-12-29T10:35:17.399Z,8.13
2018-12-29T10:36:21.426Z,14.50
2018-12-29T10:37:25.507Z,19.67
2018-12-29T10:38:29.594Z,14.93
2018-12-29T10:39:33.939Z,11.68
2018-12-29T10:40:37.953Z,10.00
2018-12-29T10:41:41.992Z,9.30
2018-12-29T10:42:46.041Z,8.67
2018-12-29T10:43:50.334Z,8.58
2018-12-29T10:44:54.431Z,8.48
2018-12-29T10:45:58.467Z,8.23
2018-12-29T10:47:02.556Z,8.23
2018-12-29T10:48:06.683Z,8.03
2018-12-29T10:49:10.794Z,8.25
2018-12-29T10:50:14.944Z,8.88
2018-12-29T10:51:19.020Z,9.45
2018-12-29T10:52:23.060Z,9.40
2018-12-29T10:53:27.089Z,8.85
2018-12-29T10:54:31.150Z,8.28
2018-12-29T10:55:35.193Z,8.10
2018-12-29T10:56:39.212Z,7.50
2018-12-29T10:57:43.227Z,9.10
2018-12-29T10:58:47.328Z,8.03
2018-12-29T10:59:51.367Z,8.00
2018-12-29T11:00:55.415Z,8.27
2018-12-29T11:01:59.417Z,7.87
2018-12-29T11:03:03.432Z,8.53
2018-12-29T11:04:07.486Z,8.30
2018-12-29T11:05:11.606Z,8.03
2018-12-29T11:06:15.638Z,7.67
2018-12-29T11:07:19.661Z,9.00
2018-12-29T11:08:23.691Z,7.80
2018-12-29T11:09:27.723Z,9.23
2018-12-29T11:10:31.803Z,9.48
2018-12-29T11:11:35.830Z,9.03
2018-12-29T11:12:40.035Z,8.28
2018-12-29T11:13:44.070Z,9.25
2018-12-29T11:14:48.124Z,9.23
2018-12-29T11:15:52.352Z,8.80
2018-12-29T11:16:56.378Z,8.10
2018-12-29T11:18:00.480Z,9.30
2018-12-29T11:19:04.539Z,10.30
2018-12-29T11:20:08.595Z,9.50
2018-12-29T11:21:12.651Z,10.13
2018-12-29T11:22:16.689Z,8.77
2018-12-29T11:23:20.715Z,9.17
2018-12-29T11:24:24.755Z,9.73
2018-12-29T11:25:28.788Z,9.68
2018-12-29T11:26:32.861Z,9.90
2018-12-29T11:27:36.885Z,11.20
2018-12-29T11:28:40.937Z,10.35
2018-12-29T11:29:44.976Z,9.45
2018-12-29T11:30:48.981Z,9.18
2018-12-29T11:31:53.259Z,9.03
2018-12-29T11:32:57.293Z,8.88
2018-12-29T11:34:01.314Z,9.45
2018-12-29T11:35:05.368Z,10.05
2018-12-29T11:36:09.443Z,9.05
2018-12-29T11:37:13.511Z,9.10
2018-12-29T11:38:17.548Z,11.18
2018-12-29T11:39:21.570Z,8.40
2018-12-29T11:40:25.875Z,8.57
2018-12-29T11:41:29.900Z,10.38
2018-12-29T11:42:33.992Z,9.08
2018-12-29T11:43:38.003Z,9.07
2018-12-29T11:44:42.024Z,8.77
2018-12-29T11:45:46.041Z,9.63
2018-12-29T11:46:50.074Z,10.32
2018-12-29T11:47:54.145Z,11.43
2018-12-29T11:48:58.200Z,10.93
2018-12-29T11:50:02.225Z,12.00
2018-12-29T11:51:06.249Z,11.13
2018-12-29T11:52:10.337Z,11.50
2018-12-29T11:53:14.768Z,10.23
2018-12-29T11:54:19.124Z,11.35
2018-12-29T11:55:23.149Z,9.73
2018-12-29T11:56:27.260Z,10.45
2018-12-29T11:57:31.261Z,9.13
2018-12-29T11:58:35.368Z,9.50
2018-12-29T11:59:39.426Z,9.68
2018-12-29T12:00:43.461Z,9.58
2018-12-29T12:01:47.479Z,9.43
2018-12-29T12:02:51.529Z,9.70
2018-12-29T12:03:55.719Z,8.95
2018-12-29T12:04:59.743Z,8.58
2018-12-29T12:06:03.788Z,8.03
2018-12-29T12:07:07.828Z,8.53
2018-12-29T12:08:11.855Z,9.83
2018-12-29T12:09:15.865Z,9.23
2018-12-29T12:10:19.908Z,9.20
2018-12-29T12:11:24.141Z,9.03
2018-12-29T12:12:28.158Z,8.08
2018-12-29T12:13:32.182Z,9.10
2018-12-29T12:14:36.495Z,8.68
2018-12-29T12:15:40.714Z,8.50
2018-12-29T12:16:44.797Z,9.30
2018-12-29T12:17:48.829Z,8.33
2018-12-29T12:18:52.922Z,8.58
2018-12-29T12:19:57.234Z,8.58
2018-12-29T12:21:01.288Z,8.85
2018-12-29T12:22:05.469Z,8.90
2018-12-29T12:23:09.572Z,8.45
2018-12-29T12:24:13.595Z,8.70
2018-12-29T12:25:17.686Z,8.87
2018-12-29T12:26:21.889Z,8.23
2018-12-29T12:27:25.928Z,9.20
2018-12-29T12:28:30.443Z,10.00
2018-12-29T12:29:34.510Z,10.53
2018-12-29T12:30:38.704Z,9.28
2018-12-29T12:31:43.192Z,8.50
2018-12-29T12:32:47.316Z,9.33
2018-12-29T12:33:51.406Z,9.80
2018-12-29T12:34:55.449Z,9.67
2018-12-29T12:35:59.483Z,9.68
2018-12-29T12:37:03.529Z,9.93
2018-12-29T12:38:07.623Z,9.90
2018-12-29T12:39:11.732Z,8.85
2018-12-29T12:40:15.775Z,9.13
2018-12-29T12:41:19.883Z,8.55
2018-12-29T12:42:23.986Z,8.10
2018-12-29T12:43:28.196Z,8.83
2018-12-29T12:44:32.634Z,8.23
2018-12-29T12:45:36.755Z,8.63
2018-12-29T12:46:40.877Z,7.60
2018-12-29T12:47:45.388Z,7.93
2018-12-29T12:48:49.651Z,7.53
2018-12-29T12:49:53.683Z,8.48
2018-12-29T12:50:58.075Z,8.57
2018-12-29T12:52:10.889Z,8.35
2018-12-29T12:53:15.291Z,8.83
2018-12-29T12:54:19.712Z,8.77
2018-12-29T12:55:23.834Z,8.40
2018-12-29T12:56:27.843Z,8.07
2018-12-29T12:57:31.924Z,7.13
2018-12-29T12:58:36.340Z,7.95
2018-12-29T12:59:40.745Z,7.83
2018-12-29T13:00:44.754Z,7.53
2018-12-29T13:01:49.139Z,7.55
2018-12-29T13:02:53.200Z,7.62
2018-12-29T13:03:57.282Z,7.67
2018-12-29T13:05:01.325Z,7.80
2018-12-29T13:06:05.464Z,7.78
2018-12-29T13:07:09.629Z,8.23
2018-12-29T13:08:13.687Z,8.25
2018-12-29T13:09:17.715Z,8.63
2018-12-29T13:10:21.729Z,7.77
2018-12-29T13:11:25.759Z,9.05
2018-12-29T13:12:29.797Z,9.37
2018-12-29T13:13:33.841Z,8.53
2018-12-29T13:14:39.075Z,9.47
2018-12-29T13:15:43.832Z,7.65
2018-12-29T13:16:48.148Z,9.17
2018-12-29T13:17:52.449Z,8.33
2018-12-29T13:18:56.568Z,8.77
2018-12-29T13:20:00.676Z,7.97
2018-12-29T13:21:05.439Z,8.48
2018-12-29T13:22:09.476Z,8.60
2018-12-29T13:23:13.506Z,8.08
2018-12-29T13:24:17.548Z,8.73
2018-12-29T13:25:21.590Z,8.35
2018-12-29T13:26:25.641Z,7.58
2018-12-29T13:27:29.716Z,7.50
2018-12-29T13:28:33.742Z,7.57
2018-12-29T13:29:37.815Z,8.93
2018-12-29T13:30:41.891Z,9.03
2018-12-29T13:31:45.989Z,8.20
2018-12-29T13:32:50.052Z,8.25
2018-12-29T13:33:54.156Z,7.67
2018-12-29T13:34:58.203Z,8.20
2018-12-29T13:36:03.964Z,8.85
2018-12-29T13:37:08.022Z,7.95
2018-12-29T13:38:12.331Z,8.33
2018-12-29T13:39:16.806Z,8.45
2018-12-29T13:40:20.921Z,8.63
2018-12-29T13:41:24.941Z,8.67
2018-12-29T13:42:29.000Z,8.83
2018-12-29T13:43:33.111Z,8.30
2018-12-29T13:44:37.188Z,9.00
2018-12-29T13:45:41.458Z,7.78
2018-12-29T13:46:45.482Z,7.05
2018-12-29T13:47:49.528Z,8.03
2018-12-29T13:48:53.581Z,7.85
2018-12-29T13:49:57.598Z,8.38
2018-12-29T13:51:01.660Z,8.73
2018-12-29T13:52:05.707Z,9.13
2018-12-29T13:53:09.810Z,8.25
2018-12-29T13:54:13.903Z,7.57
2018-12-29T13:55:17.932Z,7.90
2018-12-29T13:56:22.049Z,7.63
2018-12-29T13:57:26.162Z,7.27
2018-12-29T13:58:30.198Z,8.40
2018-12-29T13:59:34.541Z,8.58
2018-12-29T14:00:38.890Z,10.00
2018-12-29T14:01:42.935Z,8.37
2018-12-29T14:02:47.034Z,8.07
2018-12-29T14:03:51.126Z,7.63
2018-12-29T14:04:55.138Z,8.55
2018-12-29T14:05:59.222Z,8.25
2018-12-29T14:07:03.263Z,8.58
2018-12-29T14:08:07.302Z,7.83
2018-12-29T14:09:12.659Z,7.92
2018-12-29T14:10:16.679Z,8.65
2018-12-29T14:11:20.704Z,8.45